Currently 84°F in Simi Valley, California, USA
84°F
84°F / 48°F
8 mph W
0.00"
Tuesday, October 15, 2019 2:09 PM PDT

Simi Valley, California Climate Summary
Typical March Day

Normal High:    71.3°F (21.8°C)
Normal Low:    49.0°F (9.5°C)
Average:    59.2°F (15.1°C)

Hour    Temperature    Wind Speed    Humidity
12:00 AM    54°F (12°C)    2 mph    68%
1:00 AM    54°F (12°C)    2 mph    69%
2:00 AM    53°F (12°C)    2 mph    70%
3:00 AM    52°F (11°C)    2 mph    70%
4:00 AM    52°F (11°C)    2 mph    70%
5:00 AM    51°F (11°C)    3 mph    71%
6:00 AM    51°F (11°C)    3 mph    71%
7:00 AM    51°F (11°C)    3 mph    72%
8:00 AM    53°F (12°C)    3 mph    71%
9:00 AM    57°F (14°C)    3 mph    67%
10:00 AM    61°F (16°C)    4 mph    60%
11:00 AM    65°F (18°C)    4 mph    52%
12:00 PM    67°F (20°C)    5 mph    47%
1:00 PM    69°F (21°C)    5 mph    45%
2:00 PM    69°F (21°C)    6 mph    45%
3:00 PM    69°F (21°C)    6 mph    46%
4:00 PM    68°F (20°C)    6 mph    48%
5:00 PM    67°F (19°C)    5 mph    50%
6:00 PM    65°F (18°C)    4 mph    53%
7:00 PM    62°F (17°C)    3 mph    59%
8:00 PM    59°F (15°C)    2 mph    63%
9:00 PM    57°F (14°C)    2 mph    66%
10:00 PM    56°F (13°C)    2 mph    67%
11:00 PM    55°F (13°C)    2 mph    67%
 

The Simi Valley, California weather pages are a service of WeatherCurrents.
Copyright ©2019  WeatherCurrents. All rights reserved. - Submit questions and comments - Privacy Policy